Time;durP1;ratioP1;P1;durP2;ratioP2;P2;SDS_P1;SDS_P2;PMS_P1;PMS_P2;Temp;Humidity;BMP_temperature;BMP_pressure;BME280_temperature;BME280_humidity;BME280_pressure;Samples;Min_cycle;Max_cycle;Signal;HPM_P1;HPM_P2
2022/08/23 00:02:25;;;;;;;29.13;14.68;;;;;;;23.59;38.44;100294.41;5035130;28;20045;-72
2022/08/23 00:04:52;;;;;;;22.60;13.40;;;;;;;23.55;38.55;100296.41;5035054;28;20088;-72
2022/08/23 00:07:38;;;;;;;35.55;13.88;;;;;;;23.50;38.73;100302.50;5035517;28;20056;-71
2022/08/23 00:10:11;;;;;;;27.15;14.20;;;;;;;23.47;38.78;100297.63;5035002;28;20050;-72
2022/08/23 00:12:40;;;;;;;25.40;14.68;;;;;;;23.43;39.00;100300.44;5034687;28;20045;-69
2022/08/23 00:15:08;;;;;;;26.83;13.95;;;;;;;23.38;38.96;100286.59;5034916;28;20452;-71
2022/08/23 00:17:36;;;;;;;24.40;13.37;;;;;;;23.35;39.02;100296.75;5035022;28;20115;-71
2022/08/23 00:20:05;;;;;;;24.05;13.90;;;;;;;23.32;39.21;100306.06;5034880;28;20045;-71
2022/08/23 00:22:32;;;;;;;25.60;13.43;;;;;;;23.27;39.25;100295.09;5034012;28;20045;-72
2022/08/23 00:24:59;;;;;;;30.48;14.30;;;;;;;23.25;39.39;100297.53;5034686;28;20140;-71
2022/08/23 00:27:27;;;;;;;23.85;13.23;;;;;;;23.21;39.55;100296.66;5034624;28;20068;-71
2022/08/23 00:29:56;;;;;;;20.80;13.45;;;;;;;23.21;39.58;100305.19;5035279;28;20053;-71
2022/08/23 00:32:29;;;;;;;27.55;14.60;;;;;;;23.20;39.62;100303.56;5034168;28;20050;-71
2022/08/23 00:34:58;;;;;;;22.40;12.75;;;;;;;23.14;39.82;100302.31;5034873;28;20119;-72
2022/08/23 00:37:26;;;;;;;22.25;13.52;;;;;;;23.11;39.72;100307.97;5034110;28;20107;-71
2022/08/23 00:39:53;;;;;;;22.98;12.57;;;;;;;23.10;39.88;100304.34;5034915;28;20056;-71
2022/08/23 00:48:16;;;;;;;21.98;12.48;;;;;;;22.97;40.07;100303.03;5033995;28;20131;-68
2022/08/23 00:51:06;;;;;;;22.27;12.23;;;;;;;23.02;40.04;100308.34;5033819;28;20056;-69
2022/08/23 00:53:37;;;;;;;22.67;12.38;;;;;;;23.01;40.15;100309.53;5033821;28;20556;-69
2022/08/23 00:56:08;;;;;;;20.65;12.20;;;;;;;23.01;40.14;100320.88;5034161;28;20095;-69
2022/08/23 00:58:35;;;;;;;22.20;12.65;;;;;;;22.97;40.31;100314.38;5033900;28;20053;-69
2022/08/23 01:01:05;;;;;;;24.35;13.00;;;;;;;22.99;40.06;100317.66;5034200;28;20103;-70
2022/08/23 01:03:36;;;;;;;23.90;12.68;;;;;;;22.98;40.02;100318.84;5033986;28;20049;-69
2022/08/23 01:06:43;;;;;;;24.35;11.38;;;;;;;22.97;39.98;100314.38;5033932;28;20059;-69
2022/08/23 01:09:16;;;;;;;22.58;11.45;;;;;;;22.96;40.16;100326.97;5032736;28;20053;-69
2022/08/23 01:11:48;;;;;;;26.67;11.80;;;;;;;22.94;40.18;100325.69;5013903;28;20108;-69
2022/08/23 01:14:21;;;;;;;30.20;11.52;;;;;;;22.96;40.16;100328.97;5019138;28;20045;-69
2022/08/23 01:17:13;;;;;;;22.40;11.52;;;;;;;22.91;40.37;100329.34;5033421;28;20111;-69
2022/08/23 01:19:49;;;;;;;17.40;11.00;;;;;;;22.90;40.49;100328.53;5033849;28;20072;-69
2022/08/23 01:22:20;;;;;;;23.88;12.35;;;;;;;22.89;40.63;100337.44;5032509;28;20045;-69
2022/08/23 01:24:47;;;;;;;23.92;12.40;;;;;;;22.86;40.70;100335.41;5033352;28;20099;-70
2022/08/23 01:27:38;;;;;;;21.95;11.77;;;;;;;22.85;40.78;100345.94;5033537;28;20105;-69
2022/08/23 01:30:09;;;;;;;22.05;11.65;;;;;;;22.84;40.92;100344.31;5034357;28;20049;-70
2022/08/23 01:32:42;;;;;;;32.33;11.18;;;;;;;22.82;41.00;100346.72;5032778;28;20562;-69
2022/08/23 01:35:09;;;;;;;27.75;10.50;;;;;;;22.80;41.03;100342.66;5033302;28;20049;-69
2022/08/23 01:37:36;;;;;;;22.70;11.98;;;;;;;22.78;41.23;100340.22;5033324;28;20049;-69
2022/08/23 01:40:03;;;;;;;25.85;12.05;;;;;;;22.79;41.25;100344.69;5033293;28;20057;-69
2022/08/23 01:42:30;;;;;;;22.23;12.30;;;;;;;22.77;41.18;100344.25;5033258;28;20088;-69
2022/08/23 01:45:00;;;;;;;21.70;11.98;;;;;;;22.76;41.47;100350.31;5033296;28;20050;-68
2022/08/23 01:47:28;;;;;;;24.58;12.68;;;;;;;22.74;41.48;100356.38;5032867;28;20402;-69
2022/08/23 01:49:55;;;;;;;21.15;11.07;;;;;;;22.72;41.50;100352.31;5033635;28;20073;-69
2022/08/23 01:52:22;;;;;;;28.33;12.15;;;;;;;22.69;41.30;100347.44;5033158;28;20132;-72
2022/08/23 01:54:48;;;;;;;17.55;11.25;;;;;;;22.69;41.63;100353.94;5032408;28;20144;-72
2022/08/23 01:57:16;;;;;;;21.95;11.50;;;;;;;22.69;41.80;100365.28;5032972;28;20114;-72
2022/08/23 01:59:43;;;;;;;21.10;11.02;;;;;;;22.67;41.66;100356.34;5033229;28;20076;-72
2022/08/23 02:02:10;;;;;;;26.17;11.35;;;;;;;22.66;41.74;100360.41;5032941;28;20071;-72
2022/08/23 02:04:37;;;;;;;22.98;12.65;;;;;;;22.63;41.97;100366.88;5031313;28;20053;-74
2022/08/23 02:07:04;;;;;;;18.73;10.88;;;;;;;22.61;41.94;100357.91;5032915;28;20416;-72
2022/08/23 02:09:31;;;;;;;18.50;11.25;;;;;;;22.56;42.05;100361.13;5032917;28;20096;-72
2022/08/23 02:11:58;;;;;;;22.35;11.90;;;;;;;22.57;42.13;100356.25;5032945;28;20103;-72
2022/08/23 02:14:25;;;;;;;20.65;11.50;;;;;;;22.55;42.17;100364.34;5032605;28;20144;-73
2022/08/23 02:16:54;;;;;;;25.17;11.93;;;;;;;22.53;42.39;100355.44;5032899;28;20420;-72
2022/08/23 02:19:32;;;;;;;21.25;11.55;;;;;;;22.51;42.03;100369.19;5033471;28;20538;-72
2022/08/23 02:21:59;;;;;;;19.17;11.57;;;;;;;22.49;42.33;100372.38;5032613;28;20099;-72
2022/08/23 02:24:26;;;;;;;26.90;11.05;;;;;;;22.48;42.38;100365.09;5032928;28;20104;-72
2022/08/23 02:26:56;;;;;;;26.05;11.52;;;;;;;22.48;42.51;100367.94;5032704;28;20049;-72
2022/08/23 02:29:24;;;;;;;22.17;10.43;;;;;;;22.46;42.51;100373.16;5033010;28;20076;-72
2022/08/23 02:31:52;;;;;;;;;;;;;;;22.35;42.50;100374.28;5033050;28;20049;-71
2022/08/23 02:34:21;;;;;;;23.73;11.55;;;;;;;22.36;42.51;100373.91;5032313;28;19924;-71
2022/08/23 02:36:50;;;;;;;;;;;;;;;22.29;42.82;100373.03;5032825;28;20485;-71
2022/08/23 02:39:17;;;;;;;16.48;10.55;;;;;;;22.35;42.62;100375.09;5032105;28;19978;-71
2022/08/23 02:41:44;;;;;;;23.70;11.50;;;;;;;22.39;42.64;100364.59;5032172;28;20057;-72
2022/08/23 02:44:11;;;;;;;24.10;11.52;;;;;;;22.40;42.74;100374.72;5032458;28;20049;-72
2022/08/23 02:46:39;;;;;;;27.95;11.48;;;;;;;22.41;42.78;100372.72;5036422;28;20045;-71
2022/08/23 02:49:07;;;;;;;27.30;10.88;;;;;;;22.42;42.76;100377.19;5036066;28;20060;-72
2022/08/23 02:51:34;;;;;;;23.30;11.25;;;;;;;22.44;42.71;100364.22;5036582;28;20095;-71
2022/08/23 02:54:00;;;;;;;23.85;12.38;;;;;;;22.45;42.65;100379.22;5036229;28;20037;-72
2022/08/23 02:56:27;;;;;;;24.02;10.43;;;;;;;22.45;42.72;100371.53;5036114;28;20049;-71
2022/08/23 02:58:54;;;;;;;22.83;11.45;;;;;;;22.46;42.77;100373.16;5036311;28;20123;-71
2022/08/23 03:01:25;;;;;;;21.80;11.30;;;;;;;22.49;42.72;100378.06;5036387;28;20505;-71
2022/08/23 03:03:53;;;;;;;25.35;11.23;;;;;;;22.48;42.69;100386.94;5036119;28;20046;-72
2022/08/23 03:06:21;;;;;;;19.25;10.65;;;;;;;22.51;42.71;100375.69;5036489;28;20092;-70
2022/08/23 03:08:53;;;;;;;24.85;10.30;;;;;;;22.52;42.77;100382.97;5036103;28;20570;-71
2022/08/23 03:11:20;;;;;;;26.20;10.98;;;;;;;22.55;42.66;100387.03;5036313;28;20045;-72
2022/08/23 03:13:49;;;;;;;22.98;10.15;;;;;;;22.56;42.83;100392.31;5035804;28;20041;-71
2022/08/23 03:16:17;;;;;;;15.77;9.90;;;;;;;22.56;42.89;100383.00;5016612;28;20103;-71
2022/08/23 03:18:45;;;;;;;26.23;10.98;;;;;;;22.57;42.70;100381.78;5016255;28;20465;-71
2022/08/23 03:21:13;;;;;;;21.88;10.85;;;;;;;22.55;42.79;100387.03;5016714;28;20507;-71
2022/08/23 03:23:40;;;;;;;17.75;10.55;;;;;;;22.58;42.92;100392.75;5015776;28;20046;-71
2022/08/23 03:26:10;;;;;;;20.23;11.35;;;;;;;22.59;42.89;100393.56;5016644;28;20497;-71
2022/08/23 03:28:37;;;;;;;;;;;;;;;22.50;43.03;100396.72;5016465;28;20053;-71
2022/08/23 03:31:05;;;;;;;19.45;11.07;;;;;;;22.57;43.13;100407.31;5016273;28;19926;-71
2022/08/23 03:33:33;;;;;;;25.70;10.50;;;;;;;22.59;42.95;100399.25;5021148;28;20104;-72
2022/08/23 03:36:01;;;;;;;24.73;10.55;;;;;;;22.63;42.95;100403.72;5035783;28;20053;-71
2022/08/23 03:38:28;;;;;;;23.10;11.00;;;;;;;22.64;43.08;100407.38;5035565;28;20466;-71
2022/08/23 03:40:55;;;;;;;21.02;10.68;;;;;;;22.61;43.26;100414.66;5036357;28;20122;-70
2022/08/23 03:43:23;;;;;;;26.08;13.00;;;;;;;22.61;43.49;100417.47;5035911;28;20554;-71
2022/08/23 03:45:52;;;;;;;21.98;10.93;;;;;;;22.59;43.41;100411.38;5035530;28;20057;-71
2022/08/23 03:48:19;;;;;;;25.83;10.93;;;;;;;22.60;43.48;100417.88;5034961;28;20057;-71
2022/08/23 03:50:46;;;;;;;24.13;11.85;;;;;;;22.58;43.57;100415.44;5036269;28;20053;-71
2022/08/23 03:53:13;;;;;;;24.25;10.82;;;;;;;22.63;43.25;100423.59;5035170;28;20072;-72
2022/08/23 03:55:42;;;;;;;19.13;10.68;;;;;;;22.68;43.45;100425.25;5035188;28;20045;-71
2022/08/23 03:58:10;;;;;;;23.17;10.48;;;;;;;22.70;43.43;100415.13;5033473;28;20416;-73
2022/08/23 04:00:37;;;;;;;24.83;10.90;;;;;;;22.71;43.46;100415.94;5035314;28;20064;-69
2022/08/23 04:03:04;;;;;;;24.05;10.75;;;;;;;22.75;43.51;100431.78;5034988;28;20033;-69
2022/08/23 04:05:31;;;;;;;20.05;10.68;;;;;;;22.79;43.32;100426.13;5035288;28;20532;-68
2022/08/23 04:07:57;;;;;;;19.15;10.85;;;;;;;22.83;43.29;100419.28;5035086;28;20496;-68
2022/08/23 04:10:25;;;;;;;19.40;11.98;;;;;;;22.93;43.21;100434.75;5034985;28;20041;-70
2022/08/23 04:12:53;;;;;;;18.65;10.18;;;;;;;22.96;43.21;100437.63;5034789;28;20045;-69
2022/08/23 04:15:21;;;;;;;20.33;10.27;;;;;;;23.02;43.16;100430.38;5034796;28;20456;-68
2022/08/23 04:17:48;;;;;;;22.92;10.45;;;;;;;23.09;43.04;100440.94;5034864;28;20053;-68
2022/08/23 04:20:16;;;;;;;17.10;10.52;;;;;;;23.09;43.07;100441.78;5035104;28;20413;-70
2022/08/23 04:22:43;;;;;;;16.85;10.52;;;;;;;23.11;43.03;100438.53;5034875;28;20456;-69
2022/08/23 04:25:13;;;;;;;19.52;11.45;;;;;;;23.11;43.14;100439.38;5034734;28;20080;-69
2022/08/23 04:28:01;;;;;;;16.55;10.52;;;;;;;23.15;43.05;100445.88;5034266;28;20057;-69
2022/08/23 04:30:29;;;;;;;23.50;11.40;;;;;;;23.19;43.24;100443.91;5035450;28;20049;-69
2022/08/23 04:32:56;;;;;;;24.23;10.48;;;;;;;23.26;43.12;100435.44;5034507;28;20479;-69
2022/08/23 04:35:24;;;;;;;19.27;10.27;;;;;;;23.31;42.94;100446.44;5033058;28;20058;-69
2022/08/23 04:37:52;;;;;;;16.77;10.20;;;;;;;23.39;42.69;100444.44;5034544;28;20562;-70
2022/08/23 04:43:07;;;;;;;22.00;10.20;;;;;;;23.56;42.60;100440.06;5032689;28;20048;-69
2022/08/23 04:45:37;;;;;;;;;;;;;;;23.49;42.71;100455.03;5034794;28;20054;-72
2022/08/23 04:48:05;;;;;;;20.67;11.50;;;;;;;23.52;42.77;100442.91;5034504;28;19924;-69
2022/08/23 04:50:41;;;;;;;19.23;10.73;;;;;;;23.57;42.77;100447.38;5034266;28;20080;-72
2022/08/23 04:53:08;;;;;;;16.38;11.07;;;;;;;23.63;42.59;100445.78;5034058;28;20053;-73
2022/08/23 04:55:35;;;;;;;17.77;9.52;;;;;;;23.70;42.67;100448.66;5034090;28;20049;-72
2022/08/23 04:58:06;;;;;;;24.23;11.20;;;;;;;23.75;42.27;100448.28;5033874;28;20049;-69
2022/08/23 05:00:33;;;;;;;24.95;11.10;;;;;;;23.77;42.60;100438.13;5034018;28;20118;-68
2022/08/23 05:03:00;;;;;;;22.20;10.10;;;;;;;23.80;42.51;100453.59;5033812;28;20455;-71
2022/08/23 05:05:27;;;;;;;18.35;10.35;;;;;;;23.86;42.64;100443.47;5034392;28;20049;-71
2022/08/23 05:07:54;;;;;;;16.30;10.32;;;;;;;23.96;42.06;100448.38;5031881;28;20053;-72
2022/08/23 05:10:21;;;;;;;21.65;11.05;;;;;;;24.04;41.94;100450.84;5033697;28;20053;-71
2022/08/23 05:12:48;;;;;;;27.23;9.55;;;;;;;24.09;41.90;100446.81;5033778;28;20161;-71
2022/08/23 05:15:15;;;;;;;17.20;9.85;;;;;;;24.08;41.79;100454.53;5033550;28;20473;-71
2022/08/23 05:17:43;;;;;;;26.77;12.82;;;;;;;24.08;41.98;100453.72;5033563;28;20459;-71
2022/08/23 05:20:10;;;;;;;15.93;9.63;;;;;;;24.14;41.83;100452.09;5034070;28;20057;-71
2022/08/23 05:22:39;;;;;;;15.13;9.52;;;;;;;24.23;41.71;100456.22;5032382;28;20053;-70
2022/08/23 05:25:07;;;;;;;21.48;9.60;;;;;;;24.29;41.45;100460.28;5033102;28;20054;-68
2022/08/23 05:27:34;;;;;;;18.05;9.80;;;;;;;24.32;41.54;100459.47;5033122;28;20081;-69
2022/08/23 05:30:03;;;;;;;18.77;9.88;;;;;;;24.38;41.41;100459.88;5033448;28;20053;-70
2022/08/23 05:32:32;;;;;;;20.05;9.50;;;;;;;24.53;41.19;100458.69;5033880;28;20057;-69
2022/08/23 05:34:59;;;;;;;21.42;9.40;;;;;;;24.64;41.00;100456.69;5033286;28;20093;-68
2022/08/23 05:37:27;;;;;;;25.40;10.60;;;;;;;24.82;40.92;100464.06;5031946;28;20053;-69
2022/08/23 05:39:54;;;;;;;31.17;9.75;;;;;;;24.86;40.44;100464.84;5034004;28;20049;-68
2022/08/23 05:42:28;;;;;;;24.50;9.95;;;;;;;24.90;40.66;100456.31;5033646;28;20056;-68
2022/08/23 05:44:56;;;;;;;15.98;9.52;;;;;;;25.00;40.52;100458.34;5033024;28;20404;-68
2022/08/23 05:47:25;;;;;;;20.42;10.40;;;;;;;25.11;40.31;100462.00;5032804;28;20111;-70
2022/08/23 05:49:52;;;;;;;22.98;9.63;;;;;;;25.35;39.77;100461.19;5033120;28;20513;-69
2022/08/23 05:52:19;;;;;;;18.60;8.48;;;;;;;25.66;39.27;100460.28;5032932;28;20489;-69
2022/08/23 05:54:46;;;;;;;23.65;9.73;;;;;;;25.95;38.87;100461.81;5033011;28;20091;-68
2022/08/23 05:57:13;;;;;;;19.70;9.68;;;;;;;25.96;38.85;100466.28;5032127;28;20052;-68
2022/08/23 05:59:40;;;;;;;14.73;9.23;;;;;;;25.97;38.61;100467.91;5032837;28;20049;-68
2022/08/23 06:02:08;;;;;;;27.10;9.52;;;;;;;26.26;38.29;100469.41;5031725;28;20060;-68
2022/08/23 06:04:35;;;;;;;23.25;9.68;;;;;;;26.61;37.48;100471.22;5033509;28;20046;-70
2022/08/23 06:07:02;;;;;;;21.40;9.88;;;;;;;26.74;37.40;100469.56;5032757;28;20045;-68
2022/08/23 06:09:29;;;;;;;22.15;9.07;;;;;;;26.90;36.93;100477.56;5033239;28;20053;-69
2022/08/23 06:11:57;;;;;;;19.95;9.18;;;;;;;27.14;36.64;100476.56;5032660;28;20524;-72
2022/08/23 06:14:24;;;;;;;17.75;9.27;;;;;;;27.60;35.89;100482.66;5032384;28;20053;-71
2022/08/23 06:16:51;;;;;;;16.38;8.85;;;;;;;27.90;35.03;100477.84;5032676;28;20075;-69
2022/08/23 06:19:22;;;;;;;17.20;8.50;;;;;;;28.13;34.70;100482.88;5031833;28;20064;-68
2022/08/23 06:21:50;;;;;;;20.38;8.82;;;;;;;28.12;34.53;100479.19;5032552;28;20053;-68
2022/08/23 06:24:18;;;;;;;17.10;9.10;;;;;;;28.04;34.77;100494.03;5032603;28;20447;-69
2022/08/23 06:26:45;;;;;;;19.85;8.95;;;;;;;28.09;34.60;100482.09;5032510;28;20400;-69
2022/08/23 06:29:16;;;;;;;22.92;8.75;;;;;;;28.10;34.88;100483.72;5032367;28;20402;-69
2022/08/23 06:31:47;;;;;;;23.63;9.43;;;;;;;28.05;34.58;100487.88;5032134;28;20065;-69
2022/08/23 06:34:31;;;;;;;29.80;9.20;;;;;;;28.05;34.93;100481.31;5032327;28;20136;-69
2022/08/23 06:37:03;;;;;;;22.38;8.85;;;;;;;28.08;34.65;100492.75;5032192;28;20045;-69
2022/08/23 06:39:31;;;;;;;15.75;8.32;;;;;;;28.15;34.60;100480.38;5032522;28;20045;-73
2022/08/23 06:42:14;;;;;;;17.88;8.60;;;;;;;28.44;34.20;100493.06;5032696;28;20099;-74
2022/08/23 06:45:01;;;;;;;21.50;9.25;;;;;;;28.55;33.96;100493.75;5032390;28;20080;-73
2022/08/23 06:47:29;;;;;;;19.63;8.35;;;;;;;28.64;34.21;100496.91;5032168;28;20061;-72
2022/08/23 06:49:56;;;;;;;22.42;9.00;;;;;;;29.21;32.93;100497.63;5031117;28;20099;-73
2022/08/23 06:52:26;;;;;;;21.25;8.52;;;;;;;29.30;32.75;100488.47;5032095;28;20059;-72
2022/08/23 06:54:53;;;;;;;20.02;8.73;;;;;;;29.18;33.06;100492.78;5032176;28;20373;-73
2022/08/23 06:57:20;;;;;;;20.48;8.13;;;;;;;29.06;33.76;100492.56;5032979;28;20049;-72
2022/08/23 06:59:50;;;;;;;22.48;8.90;;;;;;;29.03;33.55;100497.09;5032413;28;20405;-72
2022/08/23 07:02:17;;;;;;;28.13;9.20;;;;;;;29.01;33.65;100496.69;5032152;28;20397;-73
2022/08/23 07:04:44;;;;;;;19.90;8.05;;;;;;;29.25;33.45;100494.72;5032068;28;20132;-72
2022/08/23 07:07:11;;;;;;;20.45;9.80;;;;;;;29.53;32.78;100488.44;5031975;28;20049;-72
2022/08/23 07:09:39;;;;;;;23.60;8.73;;;;;;;29.76;32.26;100488.44;5032188;28;20084;-72
2022/08/23 07:12:06;;;;;;;23.08;9.32;;;;;;;29.90;32.42;100494.72;5032209;28;20049;-72
2022/08/23 07:14:35;;;;;;;25.30;9.18;;;;;;;29.85;32.18;100498.09;5032350;28;20041;-71
2022/08/23 07:17:02;;;;;;;33.63;9.48;;;;;;;30.24;32.05;100493.63;5032282;28;20045;-70
2022/08/23 07:19:32;;;;;;;37.42;10.48;;;;;;;30.55;31.41;100495.00;5032801;28;20060;-71
2022/08/23 07:22:01;;;;;;;26.42;10.07;;;;;;;30.78;31.16;100497.75;5031714;28;20049;-70
2022/08/23 07:24:29;;;;;;;26.50;10.23;;;;;;;30.95;30.72;100499.38;5031753;28;20091;-71
2022/08/23 07:27:05;;;;;;;23.60;9.77;;;;;;;31.54;30.32;100505.69;5031833;28;20084;-70
2022/08/23 07:29:34;;;;;;;21.25;9.20;;;;;;;33.12;27.61;100496.00;5031918;28;20132;-71
2022/08/23 07:32:00;;;;;;;29.63;10.05;;;;;;;34.02;26.32;100493.25;5033170;28;20084;-70
2022/08/23 07:34:27;;;;;;;20.17;9.40;;;;;;;35.25;24.47;100502.00;5035540;28;20056;-71
2022/08/23 07:36:54;;;;;;;27.23;9.23;;;;;;;36.44;23.24;100509.03;5035555;28;20057;-68
2022/08/23 07:39:23;;;;;;;20.52;9.70;;;;;;;36.87;22.71;100498.28;5036486;28;20045;-69
2022/08/23 07:41:51;;;;;;;22.73;9.32;;;;;;;38.40;21.20;100492.25;5035719;28;20103;-67
2022/08/23 07:44:19;;;;;;;27.20;9.32;;;;;;;40.64;18.71;100500.28;5035381;28;20049;-69
2022/08/23 07:46:53;;;;;;;34.67;13.65;;;;;;;42.38;17.24;100502.50;5034640;28;20096;-69
2022/08/23 07:49:20;;;;;;;23.48;8.73;;;;;;;43.28;16.28;100504.94;5035059;28;20062;-69
2022/08/23 07:51:49;;;;;;;18.67;8.23;;;;;;;43.02;16.17;100511.88;5035985;28;20053;-67
2022/08/23 07:54:18;;;;;;;20.58;8.70;;;;;;;43.44;16.11;100504.09;5035141;28;20045;-68
2022/08/23 07:56:45;;;;;;;15.27;8.27;;;;;;;44.74;14.60;100504.06;5035775;28;20057;-67
2022/08/23 07:59:13;;;;;;;23.63;9.45;;;;;;;44.80;14.55;100506.94;5035265;28;20053;-68
2022/08/23 08:01:42;;;;;;;31.53;8.77;;;;;;;44.33;14.73;100509.13;5035042;28;20057;-68
2022/08/23 08:04:10;;;;;;;25.23;9.63;;;;;;;44.91;14.37;100509.81;5034887;28;20367;-68
2022/08/23 08:06:49;;;;;;;26.35;11.02;;;;;;;45.00;14.00;100506.53;5035099;28;20049;-69
2022/08/23 08:09:36;;;;;;;23.48;8.63;;;;;;;46.15;13.81;100503.69;5034735;28;20516;-68
2022/08/23 08:12:03;;;;;;;16.90;8.60;;;;;;;47.32;12.29;100500.47;5035748;28;20053;-68
2022/08/23 08:14:30;;;;;;;18.58;7.18;;;;;;;47.19;12.67;100503.38;5034661;28;20049;-69
2022/08/23 08:16:59;;;;;;;20.00;7.18;;;;;;;46.14;13.17;100508.78;5034438;28;20516;-68
2022/08/23 08:19:26;;;;;;;25.77;7.30;;;;;;;44.76;13.73;100500.59;5033510;28;20076;-68
2022/08/23 08:21:52;;;;;;;28.23;8.20;;;;;;;43.75;15.04;100504.59;5035365;28;20045;-70
2022/08/23 08:24:19;;;;;;;12.45;7.95;;;;;;;42.77;15.77;100494.59;5034847;28;20452;-69
2022/08/23 08:26:48;;;;;;;19.50;7.20;;;;;;;42.19;16.34;100502.16;5034119;28;20052;-70
2022/08/23 08:29:16;;;;;;;13.00;7.68;;;;;;;41.67;16.65;100488.38;5029074;28;20400;-73
2022/08/23 08:31:44;;;;;;;24.75;7.47;;;;;;;41.66;16.50;100502.16;5035200;28;20057;-67
2022/08/23 08:34:12;;;;;;;16.55;7.50;;;;;;;41.84;16.36;100492.13;5034183;28;20076;-69
2022/08/23 08:36:48;;;;;;;24.25;7.97;;;;;;;43.03;15.62;100495.88;5034884;28;20458;-72
2022/08/23 08:39:18;;;;;;;23.92;6.93;;;;;;;44.37;14.25;100494.19;5033281;28;20056;-69
2022/08/23 08:42:16;;;;;;;16.00;7.38;;;;;;;46.42;12.73;100498.72;5034471;28;20049;-69
2022/08/23 08:44:55;;;;;;;12.80;7.10;;;;;;;49.30;10.90;100501.88;5015033;28;20050;-69
2022/08/23 08:47:49;;;;;;;13.82;6.53;;;;;;;50.93;9.55;100506.84;5014737;28;20061;-71
2022/08/23 08:50:25;;;;;;;15.85;7.43;;;;;;;51.48;9.20;100499.00;5013787;28;20053;-69
2022/08/23 08:53:08;;;;;;;35.05;16.85;;;;;;;52.28;8.95;100499.97;5016243;28;20145;-68
2022/08/23 08:55:40;;;;;;;24.45;7.30;;;;;;;52.73;8.66;100499.00;5034010;28;20519;-68
2022/08/23 08:58:15;;;;;;;10.35;6.53;;;;;;;52.90;8.60;100499.06;5033959;28;20049;-68
2022/08/23 09:00:42;;;;;;;16.73;7.38;;;;;;;53.49;7.62;100511.88;5034016;28;20053;-69
2022/08/23 09:03:13;;;;;;;;;;;;;;;53.49;8.36;100502.94;5034059;28;20448;-68
2022/08/23 09:05:52;;;;;;;19.58;6.82;;;;;;;54.29;7.05;100504.06;5033551;28;19925;-68
2022/08/23 09:08:22;;;;;;;16.38;6.40;;;;;;;54.03;7.68;100495.84;5033887;28;20060;-69
2022/08/23 09:11:02;;;;;;;14.52;6.57;;;;;;;54.02;7.75;100491.28;5033894;28;20053;-68
2022/08/23 09:13:40;;;;;;;13.80;6.82;;;;;;;54.80;7.32;100495.00;5034435;28;20045;-68
2022/08/23 09:16:28;;;;;;;18.42;6.30;;;;;;;55.07;7.15;100497.94;5033201;28;20049;-70
2022/08/23 09:18:55;;;;;;;13.93;5.90;;;;;;;55.76;6.24;100495.38;5033814;28;20436;-68
2022/08/23 09:21:21;;;;;;;11.55;5.57;;;;;;;56.06;6.24;100494.78;5034266;28;20049;-68
2022/08/23 09:23:50;;;;;;;15.27;6.50;;;;;;;55.73;6.20;100502.56;5032630;28;20053;-68
2022/08/23 09:26:29;;;;;;;9.45;5.97;;;;;;;54.96;6.24;100502.31;5031822;28;20049;-69
2022/08/23 09:29:23;;;;;;;16.13;6.35;;;;;;;54.62;6.59;100493.50;5032430;28;20459;-69
2022/08/23 09:32:05;;;;;;;11.57;6.15;;;;;;;54.69;6.64;100489.59;5031126;28;20057;-69
2022/08/23 09:34:33;;;;;;;16.83;5.72;;;;;;;54.56;6.56;100489.22;5031802;28;20123;-69
2022/08/23 09:37:08;;;;;;;12.45;6.60;;;;;;;54.83;6.52;100481.84;5033543;28;20445;-69
2022/08/23 09:39:38;;;;;;;12.20;5.82;;;;;;;54.30;6.72;100484.78;5032087;28;20124;-67
2022/08/23 09:42:25;;;;;;;11.50;5.70;;;;;;;50.83;9.01;100485.13;5031688;28;20045;-68
2022/08/23 09:44:53;;;;;;;9.90;6.07;;;;;;;47.44;10.88;100472.34;5032079;28;20149;-68
2022/08/23 09:47:31;;;;;;;21.50;6.30;;;;;;;45.02;12.95;100485.44;5032387;28;20053;-67
2022/08/23 09:50:06;;;;;;;;;;;;;;;42.48;14.72;100466.59;5033939;28;20489;-67
2022/08/23 09:52:37;;;;;;;14.65;6.60;;;;;;;40.62;16.53;100473.75;5032012;28;19975;-68
2022/08/23 09:55:10;;;;;;;23.20;7.38;;;;;;;39.44;17.40;100482.91;5032525;28;20049;-68
2022/08/23 09:57:37;;;;;;;12.88;6.90;;;;;;;38.46;18.73;100477.00;5032531;28;20469;-68
2022/08/23 10:00:16;;;;;;;17.37;6.80;;;;;;;37.75;19.56;100471.38;5032671;28;20111;-68
2022/08/23 10:02:43;;;;;;;12.85;6.55;;;;;;;37.41;19.78;100469.03;5035448;28;20049;-68
2022/08/23 10:05:10;;;;;;;16.23;6.88;;;;;;;37.08;20.56;100471.09;5032106;28;20053;-69
2022/08/23 10:07:59;;;;;;;14.82;6.72;;;;;;;36.72;20.55;100467.06;5030503;28;20045;-68
2022/08/23 10:10:35;;;;;;;13.07;8.77;;;;;;;36.46;21.13;100470.84;5032156;28;20428;-68
2022/08/23 10:13:04;;;;;;;21.33;8.05;;;;;;;36.12;21.20;100482.81;5022866;28;20087;-68
2022/08/23 10:16:03;;;;;;;10.80;5.07;;;;;;;35.66;20.76;100476.19;5032192;28;20128;-69
2022/08/23 10:18:51;;;;;;;12.07;5.00;;;;;;;35.38;20.72;100465.06;5022747;28;20053;-69
2022/08/23 10:21:36;;;;;;;;;;;;;;;35.00;20.93;100479.88;5031142;28;20048;-68
2022/08/23 10:24:45;;;;;;;12.98;5.07;;;;;;;34.75;21.22;100462.75;5032267;28;19925;-68
2022/08/23 10:30:12;;;;;;;12.40;4.80;;;;;;;34.44;21.56;100473.50;5032784;28;20050;-68
2022/08/23 10:32:49;;;;;;;10.60;5.00;;;;;;;34.30;21.61;100466.16;5032746;28;20089;-71
2022/08/23 10:35:35;;;;;;;10.45;4.55;;;;;;;34.18;21.87;100469.13;5032569;28;20092;-73
2022/08/23 10:38:39;;;;;;;8.02;4.80;;;;;;;34.03;21.60;100468.03;5033042;28;20053;-75
2022/08/23 10:41:54;;;;;;;8.88;4.95;;;;;;;33.97;21.85;100467.84;5032446;28;20080;-72
2022/08/23 10:44:34;;;;;;;17.55;5.10;;;;;;;34.09;21.67;100471.94;5020019;28;20056;-72
2022/08/23 10:47:40;;;;;;;14.10;4.90;;;;;;;34.03;22.15;100456.50;5031977;28;20095;-71
2022/08/23 10:50:11;;;;;;;6.95;4.38;;;;;;;33.89;22.13;100462.81;5031933;28;20057;-73
2022/08/23 10:52:56;;;;;;;12.70;4.68;;;;;;;33.74;22.27;100468.28;5032358;28;20049;-72
2022/08/23 10:55:38;;;;;;;11.82;4.88;;;;;;;33.73;22.46;100475.34;5032466;28;20501;-73
2022/08/23 10:58:10;;;;;;;11.98;4.88;;;;;;;33.83;22.34;100476.22;5032629;28;20056;-76
2022/08/23 11:00:39;;;;;;;7.97;5.20;;;;;;;33.79;22.31;100469.75;5032371;28;20045;-73
2022/08/23 11:03:12;;;;;;;13.27;4.65;;;;;;;33.74;22.27;100461.72;5032174;28;20053;-73
2022/08/23 11:05:42;;;;;;;9.57;4.53;;;;;;;33.70;22.11;100461.00;5033380;28;20045;-73
2022/08/23 11:08:28;;;;;;;12.23;4.68;;;;;;;33.79;22.08;100458.19;5036263;28;20064;-73
2022/08/23 11:10:55;;;;;;;13.27;5.57;;;;;;;33.68;21.51;100457.81;5035518;28;20052;-72
2022/08/23 11:13:33;;;;;;;11.38;4.45;;;;;;;33.59;21.06;100451.97;5035980;28;20404;-72
2022/08/23 11:16:13;;;;;;;11.88;4.25;;;;;;;33.55;21.19;100457.03;5035753;28;20048;-72
2022/08/23 11:18:45;;;;;;;6.72;3.95;;;;;;;33.47;21.00;100463.06;5036363;28;20051;-73
2022/08/23 11:21:18;;;;;;;12.75;4.30;;;;;;;33.42;21.39;100457.88;5035015;28;20571;-72
2022/08/23 11:23:47;;;;;;;12.95;4.68;;;;;;;33.42;21.34;100472.31;5035839;28;20049;-73
2022/08/23 11:26:21;;;;;;;10.55;4.68;;;;;;;33.43;21.53;100471.06;5035820;28;20057;-73
2022/08/23 11:28:50;;;;;;;7.30;4.28;;;;;;;33.33;21.85;100471.38;5035536;28;20077;-72
2022/08/23 11:31:22;;;;;;;16.40;4.93;;;;;;;33.15;22.00;100477.75;5035307;28;20076;-73
2022/08/23 11:34:18;;;;;;;16.23;4.60;;;;;;;33.06;22.31;100457.47;5035488;28;20045;-73
2022/08/23 11:37:20;;;;;;;16.98;4.57;;;;;;;32.91;22.67;100456.34;5034388;28;20108;-73
2022/08/23 11:39:55;;;;;;;9.18;4.28;;;;;;;32.72;22.56;100454.50;5031504;28;20465;-73
2022/08/23 11:42:28;;;;;;;9.82;4.70;;;;;;;32.63;22.79;100463.03;5035182;28;20041;-72
2022/08/23 11:44:55;;;;;;;13.55;5.57;;;;;;;32.50;23.21;100453.53;5034398;28;20045;-71
2022/08/23 11:48:04;;;;;;;11.90;5.13;;;;;;;32.42;23.48;100460.81;5033568;28;20115;-73
2022/08/23 11:50:50;;;;;;;12.55;6.10;;;;;;;32.43;23.30;100450.91;5034191;28;20418;-73